MDT3 ENNO-ENZV
Flight info
| Callsign | MDT3 |
|---|---|
| Flight time | 0h 29m |
| Altitude | 28000 |
| Route | URABE DCT IDIPI |
| Aircraft | CL60/M-SBDE1E2E3FGHIJ1J4J5J7M3RWXYZ/LB1V1D1 |
Departure
| Time | 2026-05-05 18:53 |
|---|---|
| Airport | Notodden Airport (ENNO) |
Arrival
| Time | 2026-05-05 19:22 |
|---|---|
| Airport | Stavanger Airport, Sola (ENZV) |
| Time | Latitude | Longitude | Altitude | Speed | Heading |
|---|---|---|---|---|---|
| 2026-05-05 18:29 | 59.56518 | 9.21817 | 38 ft | 0 kts | 305° |
| 2026-05-05 18:49 | 59.56521 | 9.21808 | 38 ft | 3 kts | 306° |
| 2026-05-05 18:49 | 59.56506 | 9.21796 | 37 ft | 7 kts | 128° |
| 2026-05-05 18:50 | 59.56461 | 9.21905 | 37 ft | 11 kts | 162° |
| 2026-05-05 18:50 | 59.56418 | 9.21851 | 37 ft | 7 kts | 214° |
| 2026-05-05 18:50 | 59.56360 | 9.21767 | 37 ft | 12 kts | 249° |
| 2026-05-05 18:50 | 59.56412 | 9.21598 | 35 ft | 17 kts | 307° |
| 2026-05-05 18:51 | 59.56499 | 9.21370 | 33 ft | 23 kts | 307° |
| 2026-05-05 18:51 | 59.56604 | 9.21099 | 33 ft | 26 kts | 308° |
| 2026-05-05 18:51 | 59.56721 | 9.20794 | 31 ft | 29 kts | 309° |
| 2026-05-05 18:51 | 59.56846 | 9.20472 | 28 ft | 28 kts | 307° |
| 2026-05-05 18:52 | 59.56914 | 9.20310 | 30 ft | 3 kts | 305° |
| 2026-05-05 18:52 | 59.56895 | 9.20335 | 29 ft | 9 kts | 122° |
| 2026-05-05 18:52 | 59.56878 | 9.20381 | 29 ft | 26 kts | 127° |
| 2026-05-05 18:52 | 59.56504 | 9.21355 | 33 ft | 141 kts | 126° |
| 2026-05-05 18:53 | 59.55811 | 9.23110 | 753 ft | 171 kts | 128° |
| 2026-05-05 18:53 | 59.55098 | 9.24930 | 1943 ft | 179 kts | 126° |
| 2026-05-05 18:53 | 59.54389 | 9.26997 | 3006 ft | 196 kts | 121° |
| 2026-05-05 18:53 | 59.53640 | 9.29287 | 4291 ft | 207 kts | 123° |
| 2026-05-05 18:54 | 59.52807 | 9.31396 | 5797 ft | 202 kts | 133° |
| 2026-05-05 18:54 | 59.51710 | 9.33297 | 6209 ft | 219 kts | 141° |
| 2026-05-05 18:54 | 59.50434 | 9.34818 | 6128 ft | 207 kts | 166° |
| 2026-05-05 18:54 | 59.49067 | 9.34652 | 6106 ft | 208 kts | 199° |
| 2026-05-05 18:55 | 59.47698 | 9.33308 | 7116 ft | 227 kts | 227° |
| 2026-05-05 18:55 | 59.46943 | 9.30875 | 8803 ft | 215 kts | 251° |
| 2026-05-05 18:55 | 59.46392 | 9.28078 | 9881 ft | 236 kts | 251° |
| 2026-05-05 18:55 | 59.45747 | 9.24809 | 10299 ft | 284 kts | 251° |
| 2026-05-05 18:56 | 59.44981 | 9.20965 | 10902 ft | 319 kts | 250° |
| 2026-05-05 18:56 | 59.44145 | 9.16811 | 12023 ft | 332 kts | 251° |
| 2026-05-05 18:56 | 59.43300 | 9.12630 | 13353 ft | 337 kts | 251° |
| 2026-05-05 18:56 | 59.42440 | 9.08380 | 14654 ft | 340 kts | 251° |
| 2026-05-05 18:57 | 59.41581 | 9.04147 | 15994 ft | 339 kts | 252° |
| 2026-05-05 18:57 | 59.40722 | 8.99920 | 17268 ft | 338 kts | 252° |
| 2026-05-05 18:57 | 59.39859 | 8.95683 | 18459 ft | 337 kts | 252° |
| 2026-05-05 18:57 | 59.38992 | 8.91430 | 19540 ft | 339 kts | 252° |
| 2026-05-05 18:58 | 59.38115 | 8.87130 | 20479 ft | 343 kts | 252° |
| 2026-05-05 18:58 | 59.37242 | 8.82859 | 21434 ft | 344 kts | 252° |
| 2026-05-05 18:58 | 59.36352 | 8.78515 | 22307 ft | 346 kts | 252° |
| 2026-05-05 18:58 | 59.35442 | 8.74077 | 23119 ft | 350 kts | 252° |
| 2026-05-05 18:59 | 59.34532 | 8.69653 | 23868 ft | 353 kts | 252° |
| 2026-05-05 18:59 | 59.33626 | 8.65257 | 24638 ft | 355 kts | 252° |
| 2026-05-05 18:59 | 59.32692 | 8.60732 | 25300 ft | 360 kts | 251° |
| 2026-05-05 18:59 | 59.31752 | 8.56191 | 26051 ft | 361 kts | 251° |
| 2026-05-05 19:00 | 59.30815 | 8.51684 | 26953 ft | 358 kts | 251° |
| 2026-05-05 19:00 | 59.29880 | 8.47183 | 27595 ft | 360 kts | 251° |
| 2026-05-05 19:00 | 59.28925 | 8.42595 | 27840 ft | 371 kts | 251° |
| 2026-05-05 19:00 | 59.28097 | 8.38619 | 27874 ft | 381 kts | 251° |
| 2026-05-05 19:01 | 59.27097 | 8.33837 | 27861 ft | 386 kts | 250° |
| 2026-05-05 19:01 | 59.26068 | 8.28947 | 27847 ft | 383 kts | 250° |
| 2026-05-05 19:01 | 59.25064 | 8.24190 | 27709 ft | 373 kts | 250° |
| 2026-05-05 19:01 | 59.24095 | 8.19613 | 27274 ft | 362 kts | 250° |
| 2026-05-05 19:02 | 59.23150 | 8.15152 | 26825 ft | 351 kts | 250° |
| 2026-05-05 19:02 | 59.22224 | 8.10789 | 26371 ft | 342 kts | 250° |
| 2026-05-05 19:02 | 59.21330 | 8.06581 | 25926 ft | 333 kts | 251° |
| 2026-05-05 19:02 | 59.20454 | 8.02461 | 25494 ft | 326 kts | 251° |
| 2026-05-05 19:03 | 59.19597 | 7.98442 | 25078 ft | 318 kts | 251° |
| 2026-05-05 19:03 | 59.18758 | 7.94514 | 24679 ft | 311 kts | 251° |
| 2026-05-05 19:03 | 59.17931 | 7.90641 | 24270 ft | 305 kts | 251° |
| 2026-05-05 19:03 | 59.17119 | 7.86848 | 23876 ft | 299 kts | 251° |
| 2026-05-05 19:04 | 59.16335 | 7.83194 | 23481 ft | 294 kts | 251° |
| 2026-05-05 19:04 | 59.15555 | 7.79561 | 23096 ft | 289 kts | 251° |
| 2026-05-05 19:04 | 59.14785 | 7.75981 | 22709 ft | 284 kts | 252° |
| 2026-05-05 19:04 | 59.14053 | 7.72454 | 22267 ft | 281 kts | 253° |
| 2026-05-05 19:05 | 59.13349 | 7.68895 | 21862 ft | 281 kts | 253° |
| 2026-05-05 19:05 | 59.12645 | 7.65346 | 21479 ft | 282 kts | 253° |
| 2026-05-05 19:05 | 59.11935 | 7.61773 | 21104 ft | 281 kts | 253° |
| 2026-05-05 19:05 | 59.11231 | 7.58237 | 20735 ft | 281 kts | 253° |
| 2026-05-05 19:06 | 59.10532 | 7.54733 | 20352 ft | 279 kts | 253° |
| 2026-05-05 19:06 | 59.09836 | 7.51247 | 19987 ft | 279 kts | 253° |
| 2026-05-05 19:06 | 59.09134 | 7.47742 | 19600 ft | 278 kts | 253° |
| 2026-05-05 19:06 | 59.08435 | 7.44254 | 19212 ft | 277 kts | 253° |
| 2026-05-05 19:07 | 59.07743 | 7.40804 | 18823 ft | 275 kts | 254° |
| 2026-05-05 19:07 | 59.07043 | 7.37322 | 18427 ft | 274 kts | 253° |
| 2026-05-05 19:07 | 59.06350 | 7.33883 | 18018 ft | 274 kts | 253° |
| 2026-05-05 19:07 | 59.05659 | 7.30457 | 17647 ft | 274 kts | 252° |
| 2026-05-05 19:08 | 59.04955 | 7.26966 | 17256 ft | 275 kts | 252° |
| 2026-05-05 19:08 | 59.04256 | 7.23511 | 16887 ft | 277 kts | 252° |
| 2026-05-05 19:08 | 59.03547 | 7.20015 | 16514 ft | 277 kts | 252° |
| 2026-05-05 19:08 | 59.02844 | 7.16550 | 16147 ft | 278 kts | 252° |
| 2026-05-05 19:09 | 59.02132 | 7.13049 | 15776 ft | 279 kts | 252° |
| 2026-05-05 19:09 | 59.01417 | 7.09540 | 15397 ft | 280 kts | 251° |
| 2026-05-05 19:09 | 59.00697 | 7.06009 | 15029 ft | 281 kts | 251° |
| 2026-05-05 19:09 | 58.99981 | 7.02505 | 14648 ft | 282 kts | 251° |
| 2026-05-05 19:10 | 58.99261 | 6.98993 | 14276 ft | 282 kts | 251° |
| 2026-05-05 19:10 | 58.98534 | 6.95449 | 13899 ft | 283 kts | 251° |
| 2026-05-05 19:10 | 58.97809 | 6.91919 | 13531 ft | 282 kts | 251° |
| 2026-05-05 19:10 | 58.97078 | 6.88373 | 13152 ft | 281 kts | 251° |
| 2026-05-05 19:11 | 58.96360 | 6.84889 | 12792 ft | 280 kts | 251° |
| 2026-05-05 19:11 | 58.95640 | 6.81405 | 12419 ft | 278 kts | 251° |
| 2026-05-05 19:11 | 58.94919 | 6.77920 | 12056 ft | 277 kts | 252° |
| 2026-05-05 19:11 | 58.94207 | 6.74486 | 11700 ft | 276 kts | 252° |
| 2026-05-05 19:12 | 58.93496 | 6.71061 | 11338 ft | 275 kts | 251° |
| 2026-05-05 19:12 | 58.92779 | 6.67613 | 10969 ft | 274 kts | 252° |
| 2026-05-05 19:12 | 58.92067 | 6.64197 | 10607 ft | 273 kts | 252° |
| 2026-05-05 19:12 | 58.91362 | 6.60815 | 10248 ft | 272 kts | 252° |
| 2026-05-05 19:13 | 58.90654 | 6.57427 | 9884 ft | 271 kts | 252° |
| 2026-05-05 19:13 | 58.89944 | 6.54038 | 9526 ft | 270 kts | 252° |
| 2026-05-05 19:13 | 58.89243 | 6.50695 | 9164 ft | 270 kts | 252° |
| 2026-05-05 19:13 | 58.88536 | 6.47328 | 8816 ft | 268 kts | 252° |
| 2026-05-05 19:14 | 58.87839 | 6.44018 | 8449 ft | 265 kts | 252° |
| 2026-05-05 19:14 | 58.87142 | 6.40714 | 8128 ft | 260 kts | 252° |
| 2026-05-05 19:14 | 58.86469 | 6.37527 | 7793 ft | 256 kts | 252° |
| 2026-05-05 19:14 | 58.85806 | 6.34387 | 7477 ft | 251 kts | 251° |
| 2026-05-05 19:15 | 58.85144 | 6.31262 | 7146 ft | 248 kts | 252° |
| 2026-05-05 19:15 | 58.84493 | 6.28193 | 6831 ft | 244 kts | 252° |
| 2026-05-05 19:15 | 58.83855 | 6.25192 | 6517 ft | 240 kts | 252° |
| 2026-05-05 19:15 | 58.83222 | 6.22212 | 6197 ft | 237 kts | 251° |
| 2026-05-05 19:16 | 58.82605 | 6.19311 | 5905 ft | 233 kts | 252° |
| 2026-05-05 19:16 | 58.81992 | 6.16437 | 5586 ft | 230 kts | 252° |
| 2026-05-05 19:16 | 58.81391 | 6.13620 | 5288 ft | 227 kts | 252° |
| 2026-05-05 19:16 | 58.80852 | 6.10778 | 4994 ft | 220 kts | 263° |
| 2026-05-05 19:17 | 58.80933 | 6.07972 | 4700 ft | 204 kts | 288° |
| 2026-05-05 19:17 | 58.81334 | 6.05346 | 4333 ft | 206 kts | 290° |
| 2026-05-05 19:17 | 58.81733 | 6.02701 | 4008 ft | 207 kts | 289° |
| 2026-05-05 19:17 | 58.82140 | 5.99992 | 3667 ft | 210 kts | 289° |
| 2026-05-05 19:18 | 58.82544 | 5.97300 | 3352 ft | 208 kts | 290° |
| 2026-05-05 19:18 | 58.82959 | 5.94629 | 3129 ft | 207 kts | 290° |
| 2026-05-05 19:18 | 58.83375 | 5.91958 | 3172 ft | 208 kts | 290° |
| 2026-05-05 19:18 | 58.83783 | 5.89267 | 3133 ft | 211 kts | 289° |
| 2026-05-05 19:19 | 58.84197 | 5.86543 | 2822 ft | 211 kts | 290° |
| 2026-05-05 19:19 | 58.84602 | 5.83894 | 2527 ft | 200 kts | 290° |
| 2026-05-05 19:19 | 58.84978 | 5.81429 | 2202 ft | 176 kts | 290° |
| 2026-05-05 19:19 | 58.85297 | 5.79338 | 1978 ft | 150 kts | 291° |
| 2026-05-05 19:20 | 58.85591 | 5.77450 | 1725 ft | 147 kts | 291° |
| 2026-05-05 19:20 | 58.85889 | 5.75538 | 1493 ft | 150 kts | 290° |
| 2026-05-05 19:20 | 58.86180 | 5.73641 | 1248 ft | 140 kts | 290° |
| 2026-05-05 19:20 | 58.86436 | 5.71942 | 1049 ft | 126 kts | 290° |
| 2026-05-05 19:21 | 58.86676 | 5.70382 | 816 ft | 118 kts | 290° |
| 2026-05-05 19:21 | 58.86909 | 5.68863 | 632 ft | 115 kts | 287° |
| 2026-05-05 19:21 | 58.87121 | 5.67380 | 434 ft | 114 kts | 289° |
| 2026-05-05 19:21 | 58.87350 | 5.65918 | 243 ft | 114 kts | 289° |
| 2026-05-05 19:22 | 58.87576 | 5.64450 | 63 ft | 113 kts | 289° |
| 2026-05-05 19:22 | 58.87781 | 5.63122 | 25 ft | 89 kts | 287° |
| 2026-05-05 19:22 | 58.87908 | 5.62279 | 18 ft | 51 kts | 286° |
| 2026-05-05 19:22 | 58.87994 | 5.61743 | 15 ft | 12 kts | 289° |
| 2026-05-05 19:23 | 58.87980 | 5.61766 | 15 ft | 10 kts | 89° |
| 2026-05-05 19:23 | 58.87959 | 5.61932 | 17 ft | 14 kts | 102° |
| 2026-05-05 19:23 | 58.87927 | 5.62149 | 18 ft | 19 kts | 111° |
| 2026-05-05 19:23 | 58.87888 | 5.62396 | 19 ft | 13 kts | 104° |
| 2026-05-05 19:24 | 58.87937 | 5.62508 | 22 ft | 13 kts | 14° |
| 2026-05-05 19:24 | 58.88002 | 5.62550 | 22 ft | 0 kts | 34° |
| 2026-05-05 19:24 | 58.88006 | 5.62556 | 22 ft | 2 kts | 39° |
| 2026-05-05 19:24 | 58.88020 | 5.62614 | 22 ft | 6 kts | 95° |
| 2026-05-05 19:25 | 58.87999 | 5.62744 | 22 ft | 13 kts | 107° |
| 2026-05-05 19:25 | 58.87989 | 5.62946 | 24 ft | 14 kts | 80° |
| 2026-05-05 19:25 | 58.88045 | 5.63131 | 25 ft | 19 kts | 44° |
| 2026-05-05 19:25 | 58.88158 | 5.63293 | 28 ft | 22 kts | 15° |
| 2026-05-05 19:26 | 58.88324 | 5.63255 | 30 ft | 25 kts | 345° |
| 2026-05-05 19:26 | 58.88439 | 5.63110 | 31 ft | 21 kts | 315° |
| 2026-05-05 19:26 | 58.88538 | 5.62924 | 31 ft | 11 kts | 321° |
| 2026-05-05 19:26 | 58.88576 | 5.62845 | 30 ft | 4 kts | 262° |
| 2026-05-05 19:27 | 58.88566 | 5.62768 | 30 ft | 5 kts | 258° |
| 2026-05-05 19:27 | 58.88565 | 5.62756 | 30 ft | 0 kts | 257° |